Meteo

Meteo


Dettagli e Storico

Webcam

Webcam in aeroporto – Aggiornata ogni minuto

Osservatorio Meteorologico Cocomaro di Cona – Ferrara

NOAA IMAGE

NOAA

Powerd by MEEO S.r.l.

METAR

Aviation Digital Data Service (ADDS)

Output produced by METARs form (1327 UTC 18 June 2018)
found at http://www.aviationweather.gov/adds/metars/
 

METAR text: LIPF 181255Z /////KT 9999 BKN080 28/21 Q1016
Conditions at: LIPF
(FERRARA (AUT) , IT) observed 1255 UTC 18 June 2018
Temperature: 28.0°C (82°F)
Dewpoint: 21.0°C (70°F) [RH = 66%]
Pressure (altimeter): 30.00 inches Hg (1016.0 mb)
Winds: missing
Visibility: 6 or more miles (10+ km)
Ceiling: 8000 feet AGL
Clouds: broken clouds at 8000 feet AGL
Weather: no significant weather observed at this time

METAR text: LIPE 181320Z VRB02KT CAVOK 28/16 Q1017
Conditions at: LIPE
(BOLOGNA/BORGO (A, IT) observed 1320 UTC 18 June 2018
Temperature: 28.0°C (82°F)
Dewpoint: 16.0°C (61°F) [RH = 48%]
Pressure (altimeter): 30.03 inches Hg (1017.0 mb)
Winds: variable direction winds at 2 MPH (2 knots; 1.0 m/s)
Visibility: 6 or more miles (10+ km)
Ceiling: ceiling and visibility are OK
Clouds: unknown
Weather: no significant weather observed at this time

Forecast for: LIPE (BOLOGNA/BORGO (A, IT)
Text: TAF LIPE 181100Z 1812/1912 VRB05KT 9999 SCT030
Forecast period: 1200 UTC 18 June 2018 to 1200 UTC 19 June 2018
Forecast type: FROM: standard forecast or significant change
Winds: variable direction winds at 6 MPH (5 knots; 2.6 m/s)
Visibility: 6 or more miles (10+ km)
Clouds: scattered clouds at 3000 feet AGL
Weather: no significant weather forecast for this period

METAR text: LIPX 181320Z VRB02KT 9999 SCT080 29/15 Q1016
Conditions at: LIPX
(VILLAFRANCA(CV/M, IT) observed 1320 UTC 18 June 2018
Temperature: 29.0°C (84°F)
Dewpoint: 15.0°C (59°F) [RH = 43%]
Pressure (altimeter): 30.00 inches Hg (1016.0 mb)
Winds: variable direction winds at 2 MPH (2 knots; 1.0 m/s)
Visibility: 6 or more miles (10+ km)
Ceiling: at least 12,000 feet AGL
Clouds: scattered clouds at 8000 feet AGL
Weather: no significant weather observed at this time

Forecast for: LIPX (VILLAFRANCA(CV/M, IT)
Text: TAF LIPX 181100Z 1812/1821 VRB05KT CAVOK
Forecast period: 1200 to 2100 UTC 18 June 2018
Forecast type: FROM: standard forecast or significant change
Winds: variable direction winds at 6 MPH (5 knots; 2.6 m/s)
Visibility: 6 or more miles (10+ km)
Clouds: not forecast
Weather: NSW  (no significant weather)

METAR text: LIPZ 181320Z 16004KT 130V190 CAVOK 29/15 Q1015 NOSIG
Conditions at: LIPZ
(VENEZIA/TESSERA , IT) observed 1320 UTC 18 June 2018
Temperature: 29.0°C (84°F)
Dewpoint: 15.0°C (59°F) [RH = 43%]
Pressure (altimeter): 29.97 inches Hg (1015.0 mb)
Winds: from the SSE (160 degrees) at 5 MPH (4 knots; 2.1 m/s)
Visibility: 6 or more miles (10+ km)
Ceiling: ceiling and visibility are OK
Clouds: unknown
Weather: no significant weather observed at this time

Forecast for: LIPZ (VENEZIA/TESSERA , IT)
Text: TAF LIPZ 181100Z 1812/1918 15010KT 9999 SCT030
Forecast period: 1200 to 1600 UTC 18 June 2018
Forecast type: FROM: standard forecast or significant change
Winds: from the SSE (150 degrees) at 12 MPH (10 knots; 5.2 m/s)
Visibility: 6 or more miles (10+ km)
Clouds: scattered clouds at 3000 feet AGL
Weather: no significant weather forecast for this period
Text: BECMG 1816/1818 VRB05KT
Forecast period: 1600 UTC 18 June 2018 to 0800 UTC 19 June 2018
Forecast type: BECOMING: Conditions expected to become as follows by 1800 UTC 18 June 2018
Winds: variable direction winds at 6 MPH (5 knots; 2.6 m/s)
Visibility: 6 or more miles (10+ km)
Clouds: scattered clouds at 3000 feet AGL
Weather: no significant weather forecast for this period
Text: BECMG 1908/1910 16010KT
Forecast period: 0800 to 1800 UTC 19 June 2018
Forecast type: BECOMING: Conditions expected to become as follows by 1000 UTC 19 June 2018
Winds: from the SSE (160 degrees) at 12 MPH (10 knots; 5.2 m/s)
Visibility: 6 or more miles (10+ km)
Clouds: scattered clouds at 3000 feet AGL
Weather: no significant weather forecast for this period